14 Oct 2019 23:37 UTC 2019287+23:37 UTC

Overview Datums Bench Marks Data Query Site Visit Daily QC Messages Attributes

170: National Park Service - Baffin Bay

27° 17' 49" N   97° 24' 17" W
NPSBB
United States National Park Service United States National Park Service

Station Information

National Park Service - Baffin Bay
National Park Service - Baffin Bay
more pictures
 
Station Name:National Park Service - Baffin Bay
DNR ID:170
Location:27° 17' 49" N, 97° 24' 17" W

Water Level Forecasts

Latest Observations

Series Metric English Marine Observed at
Water Temperature 21.2 °C 70.2 °F 70.2 °F Oct 14 18:12 CDT
00h13m ago
Salinity 42.300 psu 42.300 psu 42.300 psu Oct 14 18:12 CDT
00h13m ago
pH 8.22 pH 8.22 pH 8.22 pH Oct 14 18:12 CDT
00h13m ago
Turbidity 22 ntu 22 ntu 22 ntu Oct 14 18:12 CDT
00h13m ago
Dissolved Oxygen 7.89 mg/L 0.000493 lb/ft3 0.000493 lb/ft3 Oct 14 18:12 CDT
00h13m ago

Maps

National Park Service - Baffin Bay
All Stations in Area
Entire Network
 

Recent Observations

Date/Time Water
Temp (°F)
Sal (psu) pH (pH) Turb (ntu) DO (lb/ft3)
Oct 14 18:00 CDT 70.2 42.300 8.22 25 0.000491
Oct 14 17:00 CDT 69.1 42.200 8.18 22 0.000458
Oct 14 16:00 CDT 69.4 42.200 8.20 28 0.000486
Oct 14 15:00 CDT 68.5 42.200 8.18 25 0.000463
Oct 14 14:00 CDT 68.4 42.100 8.18 23 0.000466
Oct 14 13:00 CDT 68.2 42.100 8.21 24 0.000489
Oct 14 12:00 CDT 67.8 42.000 8.17 31 0.000446
Oct 14 11:00 CDT 67.3 42.000 8.14 22 0.000405
Oct 14 10:00 CDT 67.1 42.000 8.12 17 0.000387
Oct 14 09:00 CDT 66.9 42.000 8.10 17 0.000370
Oct 14 08:00 CDT 66.9 42.000 8.09 17 0.000358
Oct 14 07:00 CDT 66.9 42.000 8.09 20 0.000366
Oct 14 06:00 CDT 66.9 42.000 8.10 16 0.000367
Oct 14 05:00 CDT 66.9 42.000 8.10 14 0.000381
Oct 14 04:00 CDT 66.9 42.000 8.12 15 0.000395
Oct 14 03:00 CDT 66.9 42.000 8.12 14 0.000404
Oct 14 02:00 CDT 66.9 41.900 8.13 14 0.000415
Oct 14 01:00 CDT 67.1 41.900 8.12 15 0.000410
Oct 14 00:00 CDT 67.1 42.000 8.13 16 0.000413
Oct 13 23:00 CDT 67.3 41.900 8.12 17 0.000418
Oct 13 22:00 CDT 67.1 41.900 8.12 18 0.000420
Oct 13 21:00 CDT 67.3 41.900 8.12 20 0.000419
Oct 13 20:00 CDT 67.3 41.800 8.13 18 0.000430
Oct 13 19:00 CDT 67.1 41.800 8.13 19 0.000437
Oct 13 18:00 CDT 66.7 41.800 8.12 25 0.000429

Historical Data Availability